Airfield :
LOGIN :

Register | Disclaimer

   EN    FR    IT 

 










Legend :    VFR   Marginal VFR   IFR   Intensive IFR   Very Intensive IFR
Visi :
Ceiling :
>= 8 km
>= 3000ft
5 to 8 km
1000 to 3000 ft
1500m to 5 km
500 to 1000 ft
800 to 1500m
200 to 500 ft
< 800m
< 200 ft
Symbols :   Thunderstorms  Fog  Heavy snow  Heavy precipitations  Wind > 20 kt
SIGMETs :     Misc.  Thunderstorms  Icing  Turbulence  Mountain Waves  Volcanic Ashes






- Airport Elevation : 74 ft
- IATA code : MRS


LFML - Marseille / Marignane

CURRENT METAR :
  • 211800Z AUTO 15015KT 9999 BKN026 OVC034 14/10 Q1008 TEMPO BKN014

EXPIRED METARs :
  • 211730Z AUTO 13017KT 9999 BKN029 BKN036 OVC044 14/10 Q1007 TEMPO BKN014
  • 211700Z AUTO 14016KT 9999 BKN025 BKN031 OVC039 14/09 Q1008 TEMPO BKN014
  • 211630Z AUTO 15016KT 9999 BKN029 OVC037 14/10 Q1008 TEMPO BKN014
  • 211600Z AUTO 15013KT 9999 SCT021 SCT029 BKN037 14/10 Q1008 TEMPO BKN014
  • 211530Z AUTO 14016KT 9999 FEW024 14/10 Q1007 TEMPO BKN014

TAF TAF LFML
Valid from the 21 at 15:00 until the 22 at 21:00 UTC


211400Z 2115/2221 14015KT 9999 BKN020 TX13/2211Z TN10/2202Z
TEMPO 2115/2210 BKN014
TEMPO 2210/2212 18020G35KT 4000 RA BKN010
BECMG 2212/2213 28015G30KT CAVOK
ATIS : +33 4 42 31 15 15



MET'MAP, your aeronautical weather chart ! - Copyright ORBIFLY December 2007 - Disclaimer

ORBIFLY MET'MAP TEAM :

Programming & Development : Alexandra Zaïnal
Concept & original design : Baudouin d'Aumeries
Assistance for programming : Marc-Olivier Méhu
Technical & hardware support : Manuel Goepfert

Contact : metmap@orbifly.com




SOURCES & CREDITS :

   NOAA